Time;durP1;ratioP1;P1;durP2;ratioP2;P2;SDS_P1;SDS_P2;PMS_P1;PMS_P2;Temp;Humidity;BMP_temperature;BMP_pressure;BME280_temperature;BME280_humidity;BME280_pressure;Samples;Min_cycle;Max_cycle;Signal;HPM_P1;HPM_P2
2023/12/10 00:00:42;;;;;;;257.63;112.50;;;0.90;1.00;;;;;;4990999;28;20089;-78
2023/12/10 00:03:09;;;;;;;249.90;110.65;;;0.90;10.90;;;;;;5009514;28;20049;-78
2023/12/10 00:05:37;;;;;;;255.70;109.97;;;0.80;20.90;;;;;;5011645;28;20114;-76
2023/12/10 00:08:05;;;;;;;235.50;103.75;;;0.80;21.60;;;;;;5010251;28;20050;-76
2023/12/10 00:10:32;;;;;;;235.55;103.35;;;0.80;40.00;;;;;;5016434;28;20097;-79
2023/12/10 00:13:00;;;;;;;238.57;104.03;;;0.80;1.00;;;;;;5019136;28;20054;-78
2023/12/10 00:15:28;;;;;;;254.82;107.70;;;0.80;1.00;;;;;;5022269;28;20041;-76
2023/12/10 00:17:56;;;;;;;250.32;107.00;;;0.70;1.00;;;;;;5023896;28;20096;-76
2023/12/10 00:20:25;;;;;;;227.05;104.07;;;0.60;1.00;;;;;;5022726;28;20042;-77
2023/12/10 00:22:52;;;;;;;227.75;102.63;;;0.60;94.30;;;;;;5023459;28;20299;-77
2023/12/10 00:25:20;;;;;;;223.35;101.38;;;0.60;99.90;;;;;;5023395;28;20038;-76
2023/12/10 00:27:47;;;;;;;229.27;95.30;;;0.60;92.30;;;;;;4995415;28;20072;-78
2023/12/10 00:30:16;;;;;;;226.25;101.20;;;0.60;53.00;;;;;;5020341;28;20120;-77
2023/12/10 00:32:45;;;;;;;216.45;100.97;;;0.40;14.80;;;;;;5014730;28;20050;-78
2023/12/10 00:35:13;;;;;;;227.43;104.40;;;0.50;99.90;;;;;;5010764;28;20064;-76
2023/12/10 00:37:40;;;;;;;210.50;99.07;;;0.50;99.90;;;;;;5010855;28;20046;-75
2023/12/10 00:40:10;;;;;;;221.20;100.10;;;0.50;99.90;;;;;;5011019;28;20034;-78
2023/12/10 00:42:37;;;;;;;221.57;104.22;;;0.60;99.90;;;;;;5010107;28;20042;-76
2023/12/10 00:45:06;;;;;;;215.55;100.50;;;0.60;83.40;;;;;;5010689;28;20127;-76
2023/12/10 00:47:34;;;;;;;224.70;102.15;;;0.70;96.20;;;;;;5010809;28;20132;-77
2023/12/10 00:50:03;;;;;;;223.65;101.03;;;0.70;22.20;;;;;;5022945;23;20054;-77
2023/12/10 00:52:30;;;;;;;218.25;103.32;;;0.70;33.30;;;;;;5027788;28;20046;-77
2023/12/10 00:54:58;;;;;;;272.30;105.13;;;0.70;24.30;;;;;;4987179;28;20506;-78
2023/12/10 00:57:25;;;;;;;237.07;102.55;;;0.60;1.00;;;;;;5013588;28;20045;-79
2023/12/10 00:59:53;;;;;;;252.60;99.32;;;0.50;1.00;;;;;;5010954;28;20042;-73
2023/12/10 01:02:21;;;;;;;204.68;90.47;;;0.30;1.00;;;;;;5011000;28;20069;-77
2023/12/10 01:04:49;;;;;;;221.20;92.45;;;0.00;1.00;;;;;;5010455;28;20128;-77
2023/12/10 01:07:18;;;;;;;228.07;98.55;;;-0.20;99.90;;;;;;5011139;28;20042;-77
2023/12/10 01:09:45;;;;;;;250.23;100.22;;;-0.30;99.90;;;;;;5011433;28;20754;-77
2023/12/10 01:12:13;;;;;;;266.85;101.55;;;-0.40;99.90;;;;;;4993240;28;20046;-78
2023/12/10 01:14:41;;;;;;;197.85;94.20;;;-0.40;99.90;;;;;;4998410;28;20050;-77
2023/12/10 01:17:12;;;;;;;184.13;91.53;;;-0.20;99.90;;;;;;4996648;28;20110;-75
2023/12/10 01:19:39;;;;;;;177.57;86.95;;;-0.20;99.90;;;;;;4989506;28;20049;-76
2023/12/10 01:22:07;;;;;;;187.18;88.65;;;0.00;99.90;;;;;;5014277;28;20092;-78
2023/12/10 01:24:40;;;;;;;193.10;91.13;;;0.10;99.90;;;;;;5018237;28;20529;-74
2023/12/10 01:27:09;;;;;;;178.32;88.18;;;0.20;99.90;;;;;;5020756;28;20053;-73
2023/12/10 01:29:37;;;;;;;182.57;88.22;;;0.40;99.90;;;;;;5024547;28;20112;-75
2023/12/10 01:32:05;;;;;;;180.93;88.65;;;0.50;99.90;;;;;;5020859;28;20102;-77
2023/12/10 01:34:33;;;;;;;179.63;83.28;;;0.60;99.90;;;;;;5016925;28;20057;-76
2023/12/10 01:37:00;;;;;;;181.27;84.22;;;0.60;99.90;;;;;;5000918;28;20048;-74
2023/12/10 01:39:28;;;;;;;170.15;85.15;;;0.60;24.20;;;;;;5000782;28;20046;-79
2023/12/10 01:41:58;;;;;;;187.40;89.15;;;0.60;1.00;;;;;;5017311;28;20076;-78
2023/12/10 01:44:25;;;;;;;178.18;85.63;;;0.60;1.00;;;;;;5014548;28;20042;-75
2023/12/10 01:46:53;;;;;;;190.20;93.32;;;0.60;1.00;;;;;;5023695;28;20041;-79
2023/12/10 01:49:22;;;;;;;187.73;88.53;;;0.50;1.00;;;;;;5015057;28;20069;-77
2023/12/10 01:51:51;;;;;;;195.80;93.07;;;0.40;1.00;;;;;;5011038;28;20045;-78
2023/12/10 01:54:22;;;;;;;187.43;91.65;;;0.20;1.00;;;;;;5020685;28;20061;-77
2023/12/10 01:56:51;;;;;;;188.65;88.82;;;0.10;1.00;;;;;;5002960;28;20088;-75
2023/12/10 01:59:22;;;;;;;195.07;94.22;;;0.00;18.40;;;;;;5015160;28;20042;-78
2023/12/10 02:01:50;;;;;;;181.63;90.10;;;-0.10;99.90;;;;;;5014594;28;20050;-74
2023/12/10 02:04:18;;;;;;;217.05;94.80;;;0.00;99.90;;;;;;5020268;28;20039;-77
2023/12/10 02:06:48;;;;;;;229.02;90.82;;;0.00;99.90;;;;;;5002976;28;20684;-74
2023/12/10 02:09:18;;;;;;;215.55;93.75;;;-0.10;99.90;;;;;;5022285;28;20064;-76
2023/12/10 02:11:46;;;;;;;207.25;97.65;;;-0.10;99.90;;;;;;4996306;28;20117;-76
2023/12/10 02:14:13;;;;;;;189.80;91.32;;;-0.10;99.90;;;;;;5011150;28;20042;-78
2023/12/10 02:16:42;;;;;;;187.07;85.30;;;-0.10;99.90;;;;;;5015289;28;20048;-77
2023/12/10 02:19:10;;;;;;;173.68;87.50;;;0.00;99.90;;;;;;4996031;28;20065;-76
2023/12/10 02:21:42;;;;;;;177.65;88.38;;;-0.20;99.90;;;;;;4994117;28;20046;-76
2023/12/10 02:24:12;;;;;;;172.55;87.47;;;-0.40;99.90;;;;;;5010176;28;20120;-76
2023/12/10 02:26:42;;;;;;;169.82;86.43;;;-0.30;99.90;;;;;;5011837;28;20544;-79
2023/12/10 02:29:09;;;;;;;213.27;96.47;;;-0.30;99.90;;;;;;5011655;28;20487;-77
2023/12/10 02:31:37;;;;;;;220.25;93.15;;;-0.50;99.90;;;;;;5014822;28;20046;-77
2023/12/10 02:34:05;;;;;;;175.95;88.70;;;-0.70;99.90;;;;;;5002117;28;20121;-78
2023/12/10 02:36:33;;;;;;;174.18;86.03;;;-0.70;99.90;;;;;;5009066;28;20129;-79
2023/12/10 02:39:02;;;;;;;169.75;84.93;;;-0.60;99.90;;;;;;5008909;28;20069;-77
2023/12/10 02:41:29;;;;;;;155.23;79.65;;;-0.50;99.90;;;;;;4994916;28;20050;-76
2023/12/10 02:43:58;;;;;;;154.93;80.30;;;-0.50;99.90;;;;;;4995192;28;20049;-77
2023/12/10 02:46:26;;;;;;;177.98;88.47;;;-0.80;99.90;;;;;;4995039;28;20136;-79
2023/12/10 02:48:53;;;;;;;167.77;87.65;;;-0.80;99.90;;;;;;5007199;28;20046;-78
2023/12/10 02:51:21;;;;;;;165.95;84.82;;;-0.80;99.90;;;;;;5014974;28;20038;-77
2023/12/10 02:53:49;;;;;;;163.82;82.25;;;-0.70;99.90;;;;;;5016713;28;20105;-78
2023/12/10 02:56:16;;;;;;;147.13;79.95;;;-0.40;99.90;;;;;;5025277;28;20310;-78
2023/12/10 02:58:44;;;;;;;149.32;77.82;;;-0.40;99.90;;;;;;5017567;28;20042;-78
2023/12/10 03:01:14;;;;;;;144.27;76.97;;;-0.30;99.90;;;;;;4995596;28;20410;-75
2023/12/10 03:03:41;;;;;;;149.05;80.25;;;-0.30;99.90;;;;;;5014561;28;20371;-75
2023/12/10 03:06:10;;;;;;;150.60;77.43;;;-0.30;99.90;;;;;;5009278;28;20629;-76
2023/12/10 03:08:37;;;;;;;140.48;77.40;;;-0.20;99.90;;;;;;5002662;28;20034;-77
2023/12/10 03:11:06;;;;;;;135.75;71.95;;;-0.20;99.70;;;;;;5009194;28;20061;-76
2023/12/10 03:13:33;;;;;;;141.50;74.13;;;-0.10;64.60;;;;;;5008045;28;20053;-76
2023/12/10 03:16:01;;;;;;;133.88;74.60;;;-0.20;1.00;;;;;;5009524;28;20097;-77
2023/12/10 03:18:30;;;;;;;126.50;67.07;;;-0.20;1.00;;;;;;5009136;28;20050;-77
2023/12/10 03:20:58;;;;;;;120.28;66.32;;;-0.20;1.00;;;;;;5010165;28;20034;-78
2023/12/10 03:23:26;;;;;;;114.60;63.85;;;-0.30;1.00;;;;;;5006042;28;20052;-76
2023/12/10 03:25:53;;;;;;;109.43;62.63;;;-0.30;1.00;;;;;;5007225;28;20052;-76
2023/12/10 03:28:21;;;;;;;125.78;68.90;;;-0.30;99.90;;;;;;5009255;28;20738;-77
2023/12/10 03:30:49;;;;;;;120.40;68.93;;;-0.30;99.90;;;;;;5008269;28;20490;-75
2023/12/10 03:33:16;;;;;;;127.07;72.07;;;-0.30;99.90;;;;;;5008284;28;20058;-76
2023/12/10 03:35:45;;;;;;;126.32;71.57;;;-0.30;99.90;;;;;;5007715;28;20038;-76
2023/12/10 03:38:13;;;;;;;128.90;70.20;;;-0.50;99.90;;;;;;4990620;28;20177;-76
2023/12/10 03:40:41;;;;;;;128.50;70.18;;;-0.50;1.00;;;;;;4990056;28;20049;-79
2023/12/10 03:43:08;;;;;;;126.20;69.85;;;-0.30;1.00;;;;;;5007211;28;20535;-77
2023/12/10 03:45:36;;;;;;;123.70;71.07;;;-0.30;99.90;;;;;;5006391;28;20050;-76
2023/12/10 03:48:03;;;;;;;119.80;69.13;;;-0.20;99.90;;;;;;5011304;28;20038;-78
2023/12/10 03:50:31;;;;;;;126.13;71.13;;;-0.20;99.90;;;;;;5011383;28;20446;-78
2023/12/10 03:53:01;;;;;;;117.40;67.90;;;-0.20;1.00;;;;;;5012429;28;20073;-75
2023/12/10 03:55:29;;;;;;;118.13;67.15;;;-0.10;1.00;;;;;;5017334;28;20529;-78
2023/12/10 03:57:57;;;;;;;119.13;68.38;;;0.00;21.50;;;;;;4999325;28;20049;-76
2023/12/10 04:00:24;;;;;;;117.65;66.63;;;0.10;1.00;;;;;;5021569;28;20037;-77
2023/12/10 04:02:52;;;;;;;113.45;65.45;;;0.30;99.90;;;;;;4995232;28;20057;-74
2023/12/10 04:05:20;;;;;;;109.15;63.80;;;0.30;1.00;;;;;;5035413;28;20046;-78
2023/12/10 04:07:49;;;;;;;116.95;63.47;;;0.40;1.00;;;;;;5036337;28;20069;-77
2023/12/10 04:10:18;;;;;;;107.57;62.33;;;0.40;99.90;;;;;;5033088;28;20726;-76
2023/12/10 04:12:46;;;;;;;112.32;65.00;;;0.40;1.00;;;;;;5012682;28;20117;-76
2023/12/10 04:15:14;;;;;;;113.88;64.03;;;0.50;1.00;;;;;;4994769;28;20057;-74
2023/12/10 04:17:43;;;;;;;112.97;63.15;;;0.60;1.00;;;;;;5011594;28;20391;-76
2023/12/10 04:20:11;;;;;;;112.57;65.15;;;0.60;99.90;;;;;;5013998;28;20042;-76
2023/12/10 04:22:39;;;;;;;117.35;66.25;;;0.50;1.00;;;;;;5014133;28;20045;-76
2023/12/10 04:25:07;;;;;;;109.80;62.60;;;0.50;1.00;;;;;;5013395;28;20077;-77
2023/12/10 04:27:36;;;;;;;110.95;63.05;;;0.60;1.00;;;;;;5014983;28;20052;-76
2023/12/10 04:30:04;;;;;;;115.97;67.05;;;0.60;1.00;;;;;;5015475;28;20066;-74
2023/12/10 04:32:32;;;;;;;113.25;67.78;;;0.60;1.00;;;;;;5013166;28;20245;-77
2023/12/10 04:34:59;;;;;;;115.38;67.55;;;0.70;99.90;;;;;;5012162;28;20061;-77
2023/12/10 04:37:27;;;;;;;117.25;66.85;;;0.80;99.90;;;;;;5013535;28;20042;-77
2023/12/10 04:39:55;;;;;;;109.95;65.00;;;0.90;1.00;;;;;;5017080;28;20050;-77
2023/12/10 04:42:22;;;;;;;113.57;64.20;;;1.00;1.00;;;;;;5016642;28;20043;-77
2023/12/10 04:44:51;;;;;;;104.82;60.63;;;1.10;1.00;;;;;;5014438;28;20042;-77
2023/12/10 04:47:19;;;;;;;105.20;61.72;;;1.20;1.00;;;;;;5010197;28;20038;-76
2023/12/10 04:49:46;;;;;;;114.28;64.55;;;1.20;99.90;;;;;;5009377;28;20049;-74
2023/12/10 04:52:14;;;;;;;106.35;62.42;;;1.30;99.90;;;;;;5009898;28;20437;-78
2023/12/10 04:54:42;;;;;;;109.32;62.50;;;1.30;99.90;;;;;;5010037;28;20066;-80
2023/12/10 04:57:10;;;;;;;108.93;65.18;;;1.30;99.90;;;;;;5011206;28;20045;-78
2023/12/10 04:59:38;;;;;;;105.00;61.42;;;1.30;99.90;;;;;;5008615;28;20482;-77
2023/12/10 05:02:07;;;;;;;106.07;58.70;;;1.40;99.90;;;;;;4993449;28;20049;-78
2023/12/10 05:04:34;;;;;;;119.05;65.43;;;1.50;99.90;;;;;;5009898;28;20045;-76
2023/12/10 05:07:02;;;;;;;126.78;72.47;;;1.40;99.90;;;;;;4993446;28;20106;-76
2023/12/10 05:09:31;;;;;;;138.75;76.90;;;1.40;1.00;;;;;;4982571;28;20038;-76
2023/12/10 05:11:58;;;;;;;139.25;80.28;;;1.40;1.00;;;;;;5010119;28;20044;-78
2023/12/10 05:14:26;;;;;;;143.38;81.22;;;1.40;99.90;;;;;;5010343;28;20064;-75
2023/12/10 05:16:53;;;;;;;134.20;78.25;;;1.40;1.00;;;;;;5011308;28;20038;-76
2023/12/10 05:19:22;;;;;;;135.80;75.75;;;1.30;99.90;;;;;;4993929;28;20975;-77
2023/12/10 05:21:50;;;;;;;134.07;76.55;;;1.30;1.00;;;;;;5011040;28;20053;-76
2023/12/10 05:24:18;;;;;;;140.05;79.50;;;1.30;99.90;;;;;;4993483;28;20052;-75
2023/12/10 05:26:45;;;;;;;140.57;80.65;;;1.30;17.40;;;;;;5013648;28;20049;-77
2023/12/10 05:29:13;;;;;;;148.65;86.00;;;1.10;28.30;;;;;;5017052;28;20050;-79
2023/12/10 05:31:41;;;;;;;155.05;88.45;;;0.90;32.70;;;;;;5035055;28;20038;-77
2023/12/10 05:34:09;;;;;;;168.27;93.50;;;0.80;99.90;;;;;;4996658;28;20058;-76
2023/12/10 05:36:38;;;;;;;166.93;91.78;;;0.60;1.00;;;;;;5013289;28;20070;-75
2023/12/10 05:39:06;;;;;;;157.35;87.63;;;0.60;1.00;;;;;;5012637;28;20050;-77
2023/12/10 05:41:34;;;;;;;161.18;91.00;;;0.70;1.00;;;;;;5012783;28;20038;-77
2023/12/10 05:44:02;;;;;;;155.95;88.78;;;0.70;99.50;;;;;;5000557;28;20045;-75
2023/12/10 05:46:30;;;;;;;160.73;89.80;;;0.70;99.90;;;;;;5007795;28;20045;-76
2023/12/10 05:48:57;;;;;;;163.85;91.78;;;0.80;99.90;;;;;;5008266;28;20058;-76
2023/12/10 05:51:25;;;;;;;158.88;90.93;;;0.90;99.90;;;;;;4993213;28;20136;-76
2023/12/10 05:53:55;;;;;;;161.57;90.75;;;1.00;99.90;;;;;;5009444;28;20169;-77
2023/12/10 05:56:22;;;;;;;165.43;92.38;;;1.20;99.90;;;;;;5010159;28;20148;-75
2023/12/10 05:58:50;;;;;;;156.35;90.32;;;1.20;99.90;;;;;;5009153;28;20056;-77
2023/12/10 06:01:18;;;;;;;161.80;91.45;;;1.30;99.90;;;;;;5008493;28;20050;-76
2023/12/10 06:03:45;;;;;;;159.60;90.78;;;1.30;99.90;;;;;;5014656;28;20056;-74
2023/12/10 06:06:13;;;;;;;165.43;94.10;;;1.30;99.90;;;;;;5006049;28;20042;-73
2023/12/10 06:08:41;;;;;;;168.48;94.93;;;1.20;99.90;;;;;;5003495;28;20042;-74
2023/12/10 06:11:10;;;;;;;159.27;88.90;;;1.20;99.90;;;;;;5031468;28;20065;-76
2023/12/10 06:13:38;;;;;;;161.38;90.53;;;1.10;99.90;;;;;;5031215;28;20106;-75
2023/12/10 06:16:07;;;;;;;158.77;88.85;;;1.20;99.90;;;;;;5006922;28;20056;-76
2023/12/10 06:18:34;;;;;;;157.30;89.40;;;1.20;99.90;;;;;;5015682;28;20509;-76
2023/12/10 06:21:14;;;;;;;174.88;93.72;;;1.30;99.90;;;;;;5014001;28;20050;-75
2023/12/10 06:23:42;;;;;;;172.20;91.60;;;1.30;99.90;;;;;;5007695;28;20050;-74
2023/12/10 06:26:12;;;;;;;158.10;84.30;;;1.40;99.90;;;;;;5009148;28;20042;-77
2023/12/10 06:28:39;;;;;;;160.73;87.53;;;1.30;99.90;;;;;;4993786;28;20042;-78
2023/12/10 06:31:07;;;;;;;156.57;87.05;;;1.20;99.90;;;;;;5000189;28;20153;-77
2023/12/10 06:33:35;;;;;;;147.85;79.78;;;1.40;99.90;;;;;;5009005;28;20560;-77
2023/12/10 06:36:03;;;;;;;157.93;86.85;;;1.50;99.90;;;;;;4992520;28;20061;-78
2023/12/10 06:38:31;;;;;;;161.15;88.97;;;1.60;99.90;;;;;;5010163;28;20076;-76
2023/12/10 06:40:58;;;;;;;160.20;89.32;;;1.60;99.90;;;;;;5011103;28;20045;-78
2023/12/10 06:43:28;;;;;;;168.23;89.97;;;1.50;99.90;;;;;;5009692;28;20041;-77
2023/12/10 06:45:58;;;;;;;171.02;91.05;;;1.60;99.90;;;;;;5009811;28;20038;-77
2023/12/10 06:48:26;;;;;;;155.70;90.30;;;1.50;99.90;;;;;;5010516;28;20052;-76
2023/12/10 06:50:54;;;;;;;168.70;94.22;;;1.60;99.90;;;;;;5009740;28;20094;-80
2023/12/10 06:53:22;;;;;;;190.18;103.45;;;1.60;99.90;;;;;;5009094;28;20124;-78
2023/12/10 06:55:50;;;;;;;190.50;106.85;;;1.70;99.90;;;;;;4993300;28;20046;-76
2023/12/10 06:58:17;;;;;;;187.38;104.75;;;1.60;99.90;;;;;;5012638;28;20041;-73
2023/12/10 07:00:47;;;;;;;188.02;104.55;;;1.60;99.90;;;;;;5013469;28;20226;-79
2023/12/10 07:03:14;;;;;;;162.52;95.78;;;1.60;99.90;;;;;;5010659;28;20042;-79
2023/12/10 07:05:42;;;;;;;168.38;93.40;;;1.50;99.90;;;;;;4991592;28;20077;-80
2023/12/10 07:08:10;;;;;;;183.40;103.45;;;1.50;99.90;;;;;;5013580;28;20125;-79
2023/12/10 07:10:37;;;;;;;194.25;109.97;;;1.60;99.90;;;;;;4992399;28;20049;-72
2023/12/10 07:13:05;;;;;;;205.32;114.15;;;1.70;99.90;;;;;;5009023;28;20088;-77
2023/12/10 07:15:33;;;;;;;228.75;122.57;;;1.80;99.90;;;;;;4992171;28;20034;-76
2023/12/10 07:18:02;;;;;;;216.40;122.07;;;1.90;99.90;;;;;;5009583;28;20165;-76
2023/12/10 07:20:30;;;;;;;219.40;124.53;;;2.00;99.90;;;;;;4991588;28;20060;-76
2023/12/10 07:22:57;;;;;;;221.45;121.50;;;2.10;99.90;;;;;;4992055;28;20057;-76
2023/12/10 07:25:25;;;;;;;210.52;113.45;;;2.10;99.90;;;;;;4993253;28;20656;-72
2023/12/10 07:27:53;;;;;;;244.75;133.38;;;2.20;99.90;;;;;;4981485;28;20143;-78
2023/12/10 07:30:20;;;;;;;216.00;120.07;;;2.30;99.90;;;;;;5008913;28;20045;-75
2023/12/10 07:32:48;;;;;;;240.82;135.90;;;2.20;99.90;;;;;;5009255;28;20092;-77
2023/12/10 07:35:24;;;;;;;218.05;122.18;;;2.30;99.90;;;;;;5009230;28;20056;-74
2023/12/10 07:37:52;;;;;;;204.60;116.47;;;2.30;99.90;;;;;;5009447;28;20029;-78
2023/12/10 07:40:20;;;;;;;206.55;120.65;;;2.40;99.90;;;;;;5010882;28;20092;-74
2023/12/10 07:42:47;;;;;;;193.45;113.90;;;2.60;99.90;;;;;;5010349;28;20048;-78
2023/12/10 07:45:15;;;;;;;203.23;117.18;;;2.60;99.90;;;;;;5012739;28;20060;-76
2023/12/10 07:47:43;;;;;;;235.10;121.18;;;2.70;99.90;;;;;;5010147;28;20104;-75
2023/12/10 07:50:11;;;;;;;211.05;113.90;;;2.80;99.90;;;;;;5009522;28;20054;-78
2023/12/10 07:52:41;;;;;;;235.13;126.07;;;2.80;99.90;;;;;;5009386;28;20042;-73
2023/12/10 07:55:09;;;;;;;210.63;110.28;;;2.80;99.90;;;;;;4991944;28;20053;-76
2023/12/10 07:57:36;;;;;;;200.10;105.13;;;2.90;99.90;;;;;;5008455;28;20548;-76
2023/12/10 08:00:06;;;;;;;219.07;113.68;;;2.70;99.90;;;;;;4992245;28;20037;-78
2023/12/10 08:02:39;;;;;;;213.40;107.53;;;2.60;99.90;;;;;;5009972;28;20061;-76
2023/12/10 08:05:07;;;;;;;192.60;102.75;;;2.80;99.90;;;;;;5009169;28;20050;-76
2023/12/10 08:07:35;;;;;;;198.93;104.15;;;2.90;99.90;;;;;;5009017;28;20040;-77
2023/12/10 08:10:05;;;;;;;192.68;102.00;;;3.10;99.90;;;;;;5007921;28;20057;-79
2023/12/10 08:12:32;;;;;;;199.43;106.03;;;3.10;99.90;;;;;;5008454;28;20064;-76
2023/12/10 08:15:01;;;;;;;199.98;112.55;;;3.20;99.90;;;;;;4993327;28;20043;-77
2023/12/10 08:17:30;;;;;;;223.32;117.30;;;3.20;99.90;;;;;;5007924;28;20517;-78
2023/12/10 08:19:57;;;;;;;224.98;125.32;;;3.20;99.90;;;;;;4992919;28;20524;-75
2023/12/10 08:22:30;;;;;;;232.73;125.07;;;3.30;99.90;;;;;;5009771;28;20495;-76
2023/12/10 08:24:58;;;;;;;237.13;133.52;;;3.40;99.90;;;;;;5008904;28;20058;-73
2023/12/10 08:27:27;;;;;;;224.95;121.97;;;3.40;99.90;;;;;;5009133;28;20038;-74
2023/12/10 08:29:55;;;;;;;212.25;116.05;;;3.40;99.90;;;;;;5009340;28;20038;-75
2023/12/10 08:32:23;;;;;;;223.68;120.00;;;3.30;99.90;;;;;;5009381;28;20121;-77
2023/12/10 08:34:50;;;;;;;233.02;131.60;;;3.40;99.90;;;;;;5009339;28;20048;-74
2023/12/10 08:37:18;;;;;;;281.90;157.40;;;3.50;99.90;;;;;;5011927;28;20048;-77
2023/12/10 08:39:50;;;;;;;304.60;171.60;;;3.60;99.90;;;;;;5011464;28;20647;-77
2023/12/10 08:42:17;;;;;;;290.35;158.55;;;3.60;99.90;;;;;;5022732;28;20042;-75
2023/12/10 08:44:46;;;;;;;298.33;165.10;;;3.60;99.90;;;;;;5027126;28;20049;-76
2023/12/10 08:47:14;;;;;;;250.25;140.27;;;3.60;99.90;;;;;;5026977;28;20046;-75
2023/12/10 08:49:42;;;;;;;246.80;139.15;;;3.70;99.90;;;;;;4997607;28;20069;-77
2023/12/10 08:52:09;;;;;;;268.45;151.88;;;3.80;99.90;;;;;;4995366;28;20501;-76
2023/12/10 08:54:37;;;;;;;216.77;117.97;;;3.70;99.90;;;;;;5014970;28;20034;-76
2023/12/10 08:57:05;;;;;;;198.90;112.28;;;3.80;99.90;;;;;;5013140;28;20045;-75
2023/12/10 08:59:33;;;;;;;204.68;111.70;;;3.80;99.90;;;;;;5016774;28;20030;-77
2023/12/10 09:02:02;;;;;;;216.48;116.22;;;3.80;99.90;;;;;;5022073;28;20048;-75
2023/12/10 09:04:30;;;;;;;226.00;122.32;;;3.80;99.90;;;;;;5032254;28;20080;-75
2023/12/10 09:06:57;;;;;;;225.82;119.22;;;3.80;99.90;;;;;;5016136;28;20033;-76
2023/12/10 09:09:25;;;;;;;238.18;121.45;;;3.80;99.90;;;;;;5033171;28;20101;-77
2023/12/10 09:11:52;;;;;;;232.32;120.00;;;3.70;99.90;;;;;;5035846;28;20033;-74
2023/12/10 09:14:21;;;;;;;229.88;120.00;;;3.70;99.90;;;;;;5024729;28;20042;-76
2023/12/10 09:16:48;;;;;;;239.52;124.18;;;3.70;99.90;;;;;;5016147;28;20042;-75
2023/12/10 09:19:21;;;;;;;235.57;124.15;;;3.60;99.90;;;;;;4996996;28;20076;-77
2023/12/10 09:21:49;;;;;;;248.45;128.68;;;3.60;99.90;;;;;;4998746;28;20046;-77
2023/12/10 09:24:16;;;;;;;258.00;131.63;;;3.60;99.90;;;;;;4999152;28;20504;-75
2023/12/10 09:26:44;;;;;;;266.27;141.43;;;3.60;99.90;;;;;;5021966;28;20098;-78
2023/12/10 09:29:12;;;;;;;284.10;155.07;;;3.60;99.90;;;;;;5034021;28;20038;-76
2023/12/10 09:31:40;;;;;;;299.65;158.63;;;3.40;99.90;;;;;;5029605;28;20046;-76
2023/12/10 09:34:07;;;;;;;275.17;152.27;;;3.40;99.90;;;;;;5025195;28;20038;-77
2023/12/10 09:36:36;;;;;;;265.85;148.93;;;3.40;99.90;;;;;;4998934;28;20085;-76
2023/12/10 09:39:04;;;;;;;270.15;146.32;;;3.40;99.90;;;;;;5015327;28;20394;-76
2023/12/10 09:41:32;;;;;;;256.83;142.80;;;3.30;99.90;;;;;;5008051;28;20042;-78
2023/12/10 09:43:59;;;;;;;261.20;146.15;;;3.30;99.90;;;;;;5010162;28;20445;-74
2023/12/10 09:46:30;;;;;;;261.40;146.65;;;3.30;99.90;;;;;;5007839;28;20052;-76
2023/12/10 09:48:58;;;;;;;273.90;150.57;;;3.40;99.90;;;;;;5011042;28;20618;-75
2023/12/10 09:51:26;;;;;;;309.05;159.80;;;3.40;99.90;;;;;;5011675;28;20042;-77
2023/12/10 09:53:55;;;;;;;278.90;151.25;;;3.40;99.90;;;;;;4993197;28;20053;-74
2023/12/10 09:56:22;;;;;;;289.35;154.60;;;3.50;99.90;;;;;;5012389;28;20045;-73
2023/12/10 09:58:50;;;;;;;288.45;156.57;;;3.50;99.90;;;;;;5011849;28;20222;-77
2023/12/10 10:01:17;;;;;;;294.55;162.18;;;3.40;99.90;;;;;;5011832;28;20046;-75
2023/12/10 10:03:45;;;;;;;287.42;158.90;;;3.40;99.90;;;;;;5012176;28;20033;-74
2023/12/10 10:06:13;;;;;;;306.15;171.18;;;3.50;99.90;;;;;;4996126;28;20112;-76
2023/12/10 10:08:41;;;;;;;317.73;174.75;;;3.50;99.90;;;;;;4996349;28;20045;-75
2023/12/10 10:11:10;;;;;;;358.75;183.13;;;3.60;99.90;;;;;;4994908;28;20042;-75
2023/12/10 10:13:37;;;;;;;291.70;168.57;;;3.70;99.90;;;;;;5011371;28;20042;-77
2023/12/10 10:16:12;;;;;;;325.35;178.40;;;3.70;99.90;;;;;;5010724;28;20046;-77
2023/12/10 10:18:41;;;;;;;311.93;176.67;;;3.80;99.90;;;;;;4994284;28;20127;-75
2023/12/10 10:21:09;;;;;;;305.45;179.90;;;3.80;99.90;;;;;;4994584;28;20050;-74
2023/12/10 10:23:37;;;;;;;317.55;176.45;;;3.90;99.90;;;;;;4995848;28;20513;-73
2023/12/10 10:26:05;;;;;;;316.13;175.63;;;3.90;99.90;;;;;;4994689;28;20045;-75
2023/12/10 10:28:35;;;;;;;318.45;172.90;;;3.80;99.90;;;;;;5010920;28;20030;-76
2023/12/10 10:31:03;;;;;;;329.38;180.63;;;3.90;99.90;;;;;;5012502;28;20073;-76
2023/12/10 10:33:31;;;;;;;300.70;174.05;;;3.90;99.90;;;;;;5014759;28;20046;-74
2023/12/10 10:36:00;;;;;;;296.70;171.98;;;3.90;99.90;;;;;;4998821;28;20154;-75
2023/12/10 10:38:30;;;;;;;284.50;170.57;;;4.00;99.90;;;;;;5015427;28;20033;-77
2023/12/10 10:40:59;;;;;;;292.85;170.57;;;3.90;99.90;;;;;;5016070;28;20040;-75
2023/12/10 10:43:27;;;;;;;295.10;172.48;;;4.00;99.90;;;;;;4999222;28;20064;-75
2023/12/10 10:45:57;;;;;;;289.65;172.32;;;4.10;99.90;;;;;;5001765;28;20083;-74
2023/12/10 10:48:26;;;;;;;282.10;170.38;;;4.20;99.90;;;;;;5015240;28;20088;-74
2023/12/10 10:50:58;;;;;;;313.73;183.13;;;4.10;99.90;;;;;;4998290;28;20057;-76
2023/12/10 10:53:26;;;;;;;303.60;176.88;;;4.30;99.90;;;;;;4987652;28;20057;-77
2023/12/10 10:55:54;;;;;;;296.70;168.65;;;4.30;99.90;;;;;;5014202;28;20121;-77
2023/12/10 10:58:27;;;;;;;304.65;167.35;;;4.30;99.90;;;;;;5009464;28;20049;-77
2023/12/10 11:01:00;;;;;;;328.48;179.10;;;4.30;99.90;;;;;;5027830;28;20033;-77
2023/12/10 11:03:31;;;;;;;330.23;183.27;;;4.30;99.90;;;;;;5031777;28;20069;-77
2023/12/10 11:06:03;;;;;;;333.35;178.43;;;4.30;99.90;;;;;;5031601;28;20042;-76
2023/12/10 11:08:31;;;;;;;325.65;179.80;;;4.50;99.90;;;;;;5032724;28;20029;-74
2023/12/10 11:11:01;;;;;;;297.98;167.18;;;4.60;99.90;;;;;;5022371;28;20045;-77
2023/12/10 11:13:44;;;;;;;295.40;161.10;;;4.70;99.90;;;;;;4995518;28;20504;-75
2023/12/10 11:16:13;;;;;;;280.48;158.18;;;4.70;99.90;;;;;;4984335;28;20493;-74
2023/12/10 11:18:52;;;;;;;292.05;161.10;;;4.60;99.90;;;;;;4990250;28;20056;-76
2023/12/10 11:21:19;;;;;;;295.00;153.80;;;4.70;99.90;;;;;;5012320;28;20041;-76
2023/12/10 11:23:47;;;;;;;292.05;157.00;;;4.70;99.90;;;;;;5010769;28;20100;-78
2023/12/10 11:26:15;;;;;;;281.95;151.68;;;4.70;99.90;;;;;;5011834;28;20116;-78
2023/12/10 11:28:46;;;;;;;280.70;150.23;;;4.70;99.90;;;;;;5010748;28;20034;-77
2023/12/10 11:31:15;;;;;;;494.95;181.57;;;4.70;99.90;;;;;;4992853;28;20058;-73
2023/12/10 11:33:43;;;;;;;281.33;149.40;;;4.60;99.90;;;;;;5011382;28;20056;-75
2023/12/10 11:36:11;;;;;;;352.38;156.80;;;4.60;99.90;;;;;;4980026;28;20054;-77
2023/12/10 11:38:39;;;;;;;275.65;144.32;;;4.70;99.90;;;;;;5012367;28;20101;-78
2023/12/10 11:41:06;;;;;;;267.10;142.32;;;4.60;99.90;;;;;;5012567;28;20042;-75
2023/12/10 11:43:35;;;;;;;273.40;143.45;;;4.60;99.90;;;;;;5009533;28;20042;-76
2023/12/10 11:46:03;;;;;;;292.92;146.52;;;4.70;99.90;;;;;;5000955;28;20401;-75
2023/12/10 11:48:33;;;;;;;257.98;133.80;;;4.60;99.90;;;;;;4993635;28;20142;-77
2023/12/10 11:51:01;;;;;;;310.77;144.38;;;4.30;99.90;;;;;;5009753;28;20042;-73
2023/12/10 11:53:30;;;;;;;287.00;144.82;;;4.30;99.90;;;;;;5011239;28;20088;-74
2023/12/10 11:55:59;;;;;;;259.75;136.52;;;4.40;99.90;;;;;;4993563;28;20049;-73
2023/12/10 11:58:27;;;;;;;285.80;144.82;;;4.60;99.90;;;;;;5013600;28;20122;-73
2023/12/10 12:00:59;;;;;;;298.00;146.70;;;4.80;99.90;;;;;;5011419;28;20038;-76
2023/12/10 12:03:27;;;;;;;269.10;136.93;;;4.80;99.90;;;;;;5008789;28;20042;-74
2023/12/10 12:05:57;;;;;;;363.10;155.15;;;4.40;99.90;;;;;;5013486;28;20038;-74
2023/12/10 12:08:27;;;;;;;275.58;141.18;;;4.50;99.90;;;;;;4992362;28;20100;-76
2023/12/10 12:10:57;;;;;;;277.10;140.20;;;4.80;99.90;;;;;;5015457;28;20042;-76
2023/12/10 12:13:25;;;;;;;289.08;144.13;;;4.90;99.90;;;;;;5014195;28;20476;-74
2023/12/10 12:15:53;;;;;;;290.77;150.85;;;5.00;99.90;;;;;;4995701;28;20061;-76
2023/12/10 12:18:26;;;;;;;307.30;151.90;;;5.10;99.90;;;;;;4995767;28;20053;-76
2023/12/10 12:20:55;;;;;;;290.02;145.95;;;5.30;99.90;;;;;;5014199;28;20089;-80
2023/12/10 12:23:23;;;;;;;286.50;144.65;;;5.50;99.90;;;;;;5014760;28;20105;-75
2023/12/10 12:25:51;;;;;;;270.88;139.55;;;5.50;99.90;;;;;;4998254;28;20433;-77